Antwerp, OH

5:21 PM EST on November 28, 2014 (GMT -0500)
Tom Kneubuhler, Woodburn, In | Change Station
CLOSE
Current Station
Personal Weather Station
Location: Woodburn, IN
Elevation: 751 ft
Nearby Weather Stations

Elev 751 ft 41.18 °N, 84.84 °W | Updated 8 minutes ago

Overcast
Overcast
29.7 °F
Feels Like 24 °F
N
6.0
Wind Variable Wind from SE
Gusts 10.0 mph

Today
High -- | Low -- °F
--% Chance of Precip.
Yesterday
High -- | Low -- °F
Precip. -- in
7:41 AM 5:11 PM
Waxing Crescent, 44% visible
Pressure 30.11 in
Visibility 10.0 miles
Clouds Scattered Clouds 11000 ft
Windchill 24 °F
Dew Point 24 °F
Humidity 79%
Rainfall 0.00 in
Snow Depth Not available.
UV 0 out of 12
Pollen .10 out of 12
Air Quality Not available.
Flu Activity Not available.
METAR KGWB 282155Z AUTO 14004KT 10SM SCT110 M01/M07 A3011 RMK AO2

More Conditions Fewer Conditions

Pressure 30.11 in
Visibility 10.0 miles
Clouds Scattered Clouds 11000 ft
Windchill 24 °F
Dew Point 24 °F
Humidity 79%
Rainfall 0.00 in
Snow Depth Not available.
UV 0 out of 12
Pollen .10 out of 12
Air Quality Not available.
Flu Activity Not available.
METAR KGWB 282155Z AUTO 14004KT 10SM SCT110 M01/M07 A3011 RMK AO2

More Conditions Fewer Conditions

10-Day Weather Forecast

Almanac

Astronomy

Nov. 28, 2014 Rise Set
Actual Time
Civil Twilight
Nautical Twilight
Astronomical Twilight
Moon
Length of Visible Light
Length of Day
Tomorrow will be .
, % of the Moon is Illuminated

Today's Extremes

State Highs State Lows

Community

WunderPhotos

Upload Photos

1,774,321 photos uploaded!

WunderBlogs® & News

Nearby

Air Quality

  Air Quality AQ Index Pollutant
Not available.

Snow Depth

Station Depth Elevation

Earthquake Activity

City Distance Mag. Time & Date
Minimum magnitude displayed is 2.5.

Coastal Water Temperatures

Place Temperature

Nearby Weather Stations